Weather at Doosan We’ve Poseidon Heliports

Public forecast

Using degrees Celsius for public forecast. Weather courtesy of forecast.io.

Closest aviation weather report (METAR) to Doosan We’ve Poseidon Heliports

Closest report is Gimhae International Airport, 10.2 nm (18.9 km) W. Retrieved 2020/09/22 23:00 UTC (13 minutes ago):

RKPK 222300Z 36013KT 9999 FEW030 BKN200 21/14 Q1016

Closest aviation forecast (TAF) to Doosan We’ve Poseidon Heliports

Closest forecast is Gimhae International Airport, 10.2 nm (18.9 km) W. Retrieved 2020/09/22 18:00 UTC (5 hours ago):

TAF RKPK 221700Z 2218/2324 03008KT 9999 SCT030 BKN200 TN15/2221Z TX26/2306Z TEMPO 2218/2224 BKN030 BKN200 BECMG 2300/2301 03010G20KT